Terminal Aerodrome Forecast
Issued by NWS

Home | Current Version | Previous Version | Text Only | Print | Product List | Glossary On
Versions: 1 2 3 4 5 6 7 8 9 10 11 12 13 14 15 16 17
636
FTUS41 KBTV 280746 AAA
TAFSLK
TAF AMD
KSLK 280746Z 2808/2906 22012G18KT P6SM VCSH SCT028 OVC040
      TEMPO 2808/2809 24004KT 2SM SHRA BR BKN030 OVC040
     FM281000 23008G14KT P6SM SCT025 BKN035
     FM281400 24010G20KT P6SM SCT070 SCT150
     FM290000 24007KT P6SM SCT150=

USA.gov is the U.S. government's official web portal to all federal, state and local government web resources and services.